sensor_id;sensor_type;location;lat;lon;timestamp;P1;durP1;ratioP1;P2;durP2;ratioP2
33738;SDS011;20063;51.730;11.110;2023-02-25T00:00:25;27.25;;;3.63;;
33738;SDS011;20063;51.730;11.110;2023-02-25T00:02:54;30.35;;;4.90;;
33738;SDS011;20063;51.730;11.110;2023-02-25T00:05:20;31.98;;;4.40;;
33738;SDS011;20063;51.730;11.110;2023-02-25T00:07:46;25.17;;;3.55;;
33738;SDS011;20063;51.730;11.110;2023-02-25T00:10:12;17.88;;;4.18;;
33738;SDS011;20063;51.730;11.110;2023-02-25T00:12:41;17.00;;;3.13;;
33738;SDS011;20063;51.730;11.110;2023-02-25T00:15:07;27.83;;;4.25;;
33738;SDS011;20063;51.730;11.110;2023-02-25T00:17:34;31.75;;;3.75;;
33738;SDS011;20063;51.730;11.110;2023-02-25T00:20:00;16.92;;;3.25;;
33738;SDS011;20063;51.730;11.110;2023-02-25T00:22:26;18.00;;;3.47;;
33738;SDS011;20063;51.730;11.110;2023-02-25T00:24:55;28.05;;;3.58;;
33738;SDS011;20063;51.730;11.110;2023-02-25T00:27:21;32.58;;;3.88;;
33738;SDS011;20063;51.730;11.110;2023-02-25T00:29:51;25.40;;;3.30;;
33738;SDS011;20063;51.730;11.110;2023-02-25T00:32:17;32.00;;;4.50;;
33738;SDS011;20063;51.730;11.110;2023-02-25T00:34:46;19.17;;;3.50;;
33738;SDS011;20063;51.730;11.110;2023-02-25T00:37:12;29.23;;;4.38;;
33738;SDS011;20063;51.730;11.110;2023-02-25T00:39:38;24.67;;;4.18;;
33738;SDS011;20063;51.730;11.110;2023-02-25T00:42:11;24.65;;;4.13;;
33738;SDS011;20063;51.730;11.110;2023-02-25T00:44:39;24.80;;;3.95;;
33738;SDS011;20063;51.730;11.110;2023-02-25T00:47:07;32.88;;;4.85;;
33738;SDS011;20063;51.730;11.110;2023-02-25T00:49:33;24.80;;;4.07;;
33738;SDS011;20063;51.730;11.110;2023-02-25T00:51:59;24.27;;;3.80;;
33738;SDS011;20063;51.730;11.110;2023-02-25T00:54:24;20.27;;;3.85;;
33738;SDS011;20063;51.730;11.110;2023-02-25T00:56:50;11.73;;;2.80;;
33738;SDS011;20063;51.730;11.110;2023-02-25T00:59:15;16.30;;;3.50;;
33738;SDS011;20063;51.730;11.110;2023-02-25T01:01:41;18.45;;;2.80;;
33738;SDS011;20063;51.730;11.110;2023-02-25T01:04:07;21.30;;;2.97;;
33738;SDS011;20063;51.730;11.110;2023-02-25T01:06:34;30.10;;;4.55;;
33738;SDS011;20063;51.730;11.110;2023-02-25T01:09:02;15.02;;;3.65;;
33738;SDS011;20063;51.730;11.110;2023-02-25T01:11:31;14.20;;;2.75;;
33738;SDS011;20063;51.730;11.110;2023-02-25T01:14:01;20.42;;;2.75;;
33738;SDS011;20063;51.730;11.110;2023-02-25T01:16:29;14.88;;;3.17;;
33738;SDS011;20063;51.730;11.110;2023-02-25T01:18:57;17.58;;;4.22;;
33738;SDS011;20063;51.730;11.110;2023-02-25T01:21:26;9.02;;;2.50;;
33738;SDS011;20063;51.730;11.110;2023-02-25T01:23:59;17.98;;;3.67;;
33738;SDS011;20063;51.730;11.110;2023-02-25T01:26:27;11.93;;;2.45;;
33738;SDS011;20063;51.730;11.110;2023-02-25T01:28:55;9.43;;;2.63;;
33738;SDS011;20063;51.730;11.110;2023-02-25T01:31:21;14.32;;;2.83;;
33738;SDS011;20063;51.730;11.110;2023-02-25T01:33:49;11.68;;;2.58;;
33738;SDS011;20063;51.730;11.110;2023-02-25T01:36:15;11.13;;;2.42;;
33738;SDS011;20063;51.730;11.110;2023-02-25T01:38:46;12.38;;;2.53;;
33738;SDS011;20063;51.730;11.110;2023-02-25T01:41:11;16.02;;;3.03;;
33738;SDS011;20063;51.730;11.110;2023-02-25T01:43:37;25.23;;;3.67;;
33738;SDS011;20063;51.730;11.110;2023-02-25T01:46:04;22.95;;;3.53;;
33738;SDS011;20063;51.730;11.110;2023-02-25T01:48:31;22.52;;;3.05;;
33738;SDS011;20063;51.730;11.110;2023-02-25T01:51:01;17.05;;;4.30;;
33738;SDS011;20063;51.730;11.110;2023-02-25T01:53:37;27.50;;;3.55;;
33738;SDS011;20063;51.730;11.110;2023-02-25T01:56:07;32.60;;;4.78;;
33738;SDS011;20063;51.730;11.110;2023-02-25T01:58:36;26.75;;;4.18;;
33738;SDS011;20063;51.730;11.110;2023-02-25T02:01:02;29.52;;;4.03;;
33738;SDS011;20063;51.730;11.110;2023-02-25T02:03:31;26.27;;;4.32;;
33738;SDS011;20063;51.730;11.110;2023-02-25T02:06:00;25.02;;;4.03;;
33738;SDS011;20063;51.730;11.110;2023-02-25T02:08:27;26.95;;;3.72;;
33738;SDS011;20063;51.730;11.110;2023-02-25T02:10:54;23.40;;;4.38;;
33738;SDS011;20063;51.730;11.110;2023-02-25T02:13:21;33.70;;;4.60;;
33738;SDS011;20063;51.730;11.110;2023-02-25T02:18:39;29.35;;;5.18;;
33738;SDS011;20063;51.730;11.110;2023-02-25T02:32:15;22.92;;;4.03;;
33738;SDS011;20063;51.730;11.110;2023-02-25T02:37:58;18.75;;;3.42;;
33738;SDS011;20063;51.730;11.110;2023-02-25T02:40:49;24.15;;;4.93;;
33738;SDS011;20063;51.730;11.110;2023-02-25T02:43:40;13.93;;;3.20;;
33738;SDS011;20063;51.730;11.110;2023-02-25T02:51:40;15.50;;;3.93;;
33738;SDS011;20063;51.730;11.110;2023-02-25T02:54:10;14.60;;;2.45;;
33738;SDS011;20063;51.730;11.110;2023-02-25T02:56:40;13.77;;;3.17;;
33738;SDS011;20063;51.730;11.110;2023-02-25T02:59:13;17.33;;;3.95;;
33738;SDS011;20063;51.730;11.110;2023-02-25T03:01:51;21.88;;;4.78;;
33738;SDS011;20063;51.730;11.110;2023-02-25T03:04:23;19.20;;;4.53;;
33738;SDS011;20063;51.730;11.110;2023-02-25T03:06:56;20.25;;;4.15;;
33738;SDS011;20063;51.730;11.110;2023-02-25T03:12:22;20.35;;;3.67;;
33738;SDS011;20063;51.730;11.110;2023-02-25T03:14:52;18.70;;;4.25;;
33738;SDS011;20063;51.730;11.110;2023-02-25T03:17:19;15.80;;;3.10;;
33738;SDS011;20063;51.730;11.110;2023-02-25T03:22:40;23.13;;;3.55;;
33738;SDS011;20063;51.730;11.110;2023-02-25T03:25:15;15.88;;;3.83;;
33738;SDS011;20063;51.730;11.110;2023-02-25T03:27:56;10.90;;;3.38;;
33738;SDS011;20063;51.730;11.110;2023-02-25T03:30:28;17.15;;;3.17;;
33738;SDS011;20063;51.730;11.110;2023-02-25T03:33:09;18.08;;;2.53;;
33738;SDS011;20063;51.730;11.110;2023-02-25T03:35:38;15.40;;;3.78;;
33738;SDS011;20063;51.730;11.110;2023-02-25T03:38:07;15.45;;;3.40;;
33738;SDS011;20063;51.730;11.110;2023-02-25T03:40:36;18.00;;;3.88;;
33738;SDS011;20063;51.730;11.110;2023-02-25T03:43:05;11.20;;;2.88;;
33738;SDS011;20063;51.730;11.110;2023-02-25T03:45:38;13.07;;;4.25;;
33738;SDS011;20063;51.730;11.110;2023-02-25T03:48:07;15.57;;;4.18;;
33738;SDS011;20063;51.730;11.110;2023-02-25T03:50:36;17.00;;;4.35;;
33738;SDS011;20063;51.730;11.110;2023-02-25T03:53:07;14.80;;;4.00;;
33738;SDS011;20063;51.730;11.110;2023-02-25T03:55:33;11.32;;;4.10;;
33738;SDS011;20063;51.730;11.110;2023-02-25T03:57:59;10.65;;;3.88;;
33738;SDS011;20063;51.730;11.110;2023-02-25T04:00:26;11.27;;;3.40;;
33738;SDS011;20063;51.730;11.110;2023-02-25T04:02:54;11.65;;;3.20;;
33738;SDS011;20063;51.730;11.110;2023-02-25T04:05:21;7.18;;;2.88;;
33738;SDS011;20063;51.730;11.110;2023-02-25T04:07:51;7.30;;;4.03;;
33738;SDS011;20063;51.730;11.110;2023-02-25T04:10:18;6.60;;;2.95;;
33738;SDS011;20063;51.730;11.110;2023-02-25T04:12:44;7.68;;;3.10;;
33738;SDS011;20063;51.730;11.110;2023-02-25T04:15:11;8.60;;;3.88;;
33738;SDS011;20063;51.730;11.110;2023-02-25T04:17:38;5.13;;;3.28;;
33738;SDS011;20063;51.730;11.110;2023-02-25T04:20:03;12.07;;;4.20;;
33738;SDS011;20063;51.730;11.110;2023-02-25T04:22:30;9.55;;;4.07;;
33738;SDS011;20063;51.730;11.110;2023-02-25T04:24:56;15.05;;;5.07;;
33738;SDS011;20063;51.730;11.110;2023-02-25T04:27:22;9.07;;;4.68;;
33738;SDS011;20063;51.730;11.110;2023-02-25T04:29:49;10.32;;;4.88;;
33738;SDS011;20063;51.730;11.110;2023-02-25T04:32:14;12.45;;;5.03;;
33738;SDS011;20063;51.730;11.110;2023-02-25T04:34:40;16.02;;;5.38;;
33738;SDS011;20063;51.730;11.110;2023-02-25T04:37:06;19.67;;;5.07;;
33738;SDS011;20063;51.730;11.110;2023-02-25T04:39:35;23.08;;;6.00;;
33738;SDS011;20063;51.730;11.110;2023-02-25T04:42:07;15.98;;;6.28;;
33738;SDS011;20063;51.730;11.110;2023-02-25T04:44:33;22.35;;;5.25;;
33738;SDS011;20063;51.730;11.110;2023-02-25T04:46:59;33.53;;;6.63;;
33738;SDS011;20063;51.730;11.110;2023-02-25T04:49:34;23.33;;;6.53;;
33738;SDS011;20063;51.730;11.110;2023-02-25T04:52:12;21.27;;;5.13;;
33738;SDS011;20063;51.730;11.110;2023-02-25T04:54:39;26.67;;;7.07;;
33738;SDS011;20063;51.730;11.110;2023-02-25T04:57:06;17.17;;;5.50;;
33738;SDS011;20063;51.730;11.110;2023-02-25T04:59:32;23.40;;;5.75;;
33738;SDS011;20063;51.730;11.110;2023-02-25T05:01:58;24.42;;;7.40;;
33738;SDS011;20063;51.730;11.110;2023-02-25T05:04:23;16.38;;;5.25;;
33738;SDS011;20063;51.730;11.110;2023-02-25T05:06:49;17.13;;;4.57;;
33738;SDS011;20063;51.730;11.110;2023-02-25T05:09:14;19.00;;;5.28;;
33738;SDS011;20063;51.730;11.110;2023-02-25T05:11:40;15.80;;;4.82;;
33738;SDS011;20063;51.730;11.110;2023-02-25T05:14:06;19.05;;;5.00;;
33738;SDS011;20063;51.730;11.110;2023-02-25T05:16:31;14.43;;;3.85;;
33738;SDS011;20063;51.730;11.110;2023-02-25T05:18:57;14.95;;;4.18;;
33738;SDS011;20063;51.730;11.110;2023-02-25T05:21:23;20.73;;;4.55;;
33738;SDS011;20063;51.730;11.110;2023-02-25T05:23:51;21.50;;;4.43;;
33738;SDS011;20063;51.730;11.110;2023-02-25T05:26:19;20.48;;;4.38;;
33738;SDS011;20063;51.730;11.110;2023-02-25T05:28:54;17.45;;;4.18;;
33738;SDS011;20063;51.730;11.110;2023-02-25T05:31:21;21.30;;;5.30;;
33738;SDS011;20063;51.730;11.110;2023-02-25T05:33:48;16.40;;;4.40;;
33738;SDS011;20063;51.730;11.110;2023-02-25T05:36:15;23.70;;;6.15;;
33738;SDS011;20063;51.730;11.110;2023-02-25T05:38:41;14.05;;;3.55;;
33738;SDS011;20063;51.730;11.110;2023-02-25T05:41:08;25.83;;;3.95;;
33738;SDS011;20063;51.730;11.110;2023-02-25T05:43:34;10.98;;;4.15;;
33738;SDS011;20063;51.730;11.110;2023-02-25T05:46:01;12.95;;;3.80;;
33738;SDS011;20063;51.730;11.110;2023-02-25T05:48:29;18.50;;;4.18;;
33738;SDS011;20063;51.730;11.110;2023-02-25T05:51:03;12.73;;;3.33;;
33738;SDS011;20063;51.730;11.110;2023-02-25T05:53:32;14.05;;;3.33;;
33738;SDS011;20063;51.730;11.110;2023-02-25T05:55:58;13.07;;;3.40;;
33738;SDS011;20063;51.730;11.110;2023-02-25T05:58:27;20.77;;;5.82;;
33738;SDS011;20063;51.730;11.110;2023-02-25T06:00:52;9.68;;;3.15;;
33738;SDS011;20063;51.730;11.110;2023-02-25T06:03:18;22.42;;;4.20;;
33738;SDS011;20063;51.730;11.110;2023-02-25T06:05:43;13.10;;;3.60;;
33738;SDS011;20063;51.730;11.110;2023-02-25T06:08:09;14.70;;;4.20;;
33738;SDS011;20063;51.730;11.110;2023-02-25T06:10:37;7.32;;;2.88;;
33738;SDS011;20063;51.730;11.110;2023-02-25T06:13:07;7.10;;;3.50;;
33738;SDS011;20063;51.730;11.110;2023-02-25T06:15:35;15.20;;;3.72;;
33738;SDS011;20063;51.730;11.110;2023-02-25T06:18:05;16.80;;;4.22;;
33738;SDS011;20063;51.730;11.110;2023-02-25T06:20:31;19.23;;;4.13;;
33738;SDS011;20063;51.730;11.110;2023-02-25T06:22:59;26.40;;;5.38;;
33738;SDS011;20063;51.730;11.110;2023-02-25T06:25:25;19.05;;;4.03;;
33738;SDS011;20063;51.730;11.110;2023-02-25T06:27:54;22.15;;;4.57;;
33738;SDS011;20063;51.730;11.110;2023-02-25T06:30:23;23.85;;;4.75;;
33738;SDS011;20063;51.730;11.110;2023-02-25T06:32:49;10.30;;;3.80;;
33738;SDS011;20063;51.730;11.110;2023-02-25T06:35:14;19.95;;;5.10;;
33738;SDS011;20063;51.730;11.110;2023-02-25T06:37:40;15.77;;;3.92;;
33738;SDS011;20063;51.730;11.110;2023-02-25T06:40:07;18.52;;;4.63;;
33738;SDS011;20063;51.730;11.110;2023-02-25T06:42:36;12.75;;;4.15;;
33738;SDS011;20063;51.730;11.110;2023-02-25T06:45:02;15.52;;;4.85;;
33738;SDS011;20063;51.730;11.110;2023-02-25T06:47:28;12.25;;;3.70;;
33738;SDS011;20063;51.730;11.110;2023-02-25T06:49:54;13.75;;;4.57;;
33738;SDS011;20063;51.730;11.110;2023-02-25T06:52:21;14.73;;;3.75;;
33738;SDS011;20063;51.730;11.110;2023-02-25T06:54:47;15.27;;;4.20;;
33738;SDS011;20063;51.730;11.110;2023-02-25T06:57:14;13.65;;;4.10;;
33738;SDS011;20063;51.730;11.110;2023-02-25T06:59:39;11.70;;;4.07;;
33738;SDS011;20063;51.730;11.110;2023-02-25T07:02:05;11.90;;;3.45;;
33738;SDS011;20063;51.730;11.110;2023-02-25T07:04:31;22.40;;;4.65;;
33738;SDS011;20063;51.730;11.110;2023-02-25T07:06:56;16.00;;;3.78;;
33738;SDS011;20063;51.730;11.110;2023-02-25T07:09:22;12.05;;;3.63;;
33738;SDS011;20063;51.730;11.110;2023-02-25T07:11:49;11.57;;;3.20;;
33738;SDS011;20063;51.730;11.110;2023-02-25T07:14:15;21.27;;;4.22;;
33738;SDS011;20063;51.730;11.110;2023-02-25T07:16:40;7.82;;;3.28;;
33738;SDS011;20063;51.730;11.110;2023-02-25T07:19:06;10.32;;;3.35;;
33738;SDS011;20063;51.730;11.110;2023-02-25T07:21:32;7.47;;;3.22;;
33738;SDS011;20063;51.730;11.110;2023-02-25T07:23:57;11.52;;;4.07;;
33738;SDS011;20063;51.730;11.110;2023-02-25T07:26:24;15.50;;;3.95;;
33738;SDS011;20063;51.730;11.110;2023-02-25T07:28:54;6.53;;;3.38;;
33738;SDS011;20063;51.730;11.110;2023-02-25T07:31:20;10.13;;;4.55;;
33738;SDS011;20063;51.730;11.110;2023-02-25T07:33:46;12.18;;;4.20;;
33738;SDS011;20063;51.730;11.110;2023-02-25T07:36:12;14.65;;;4.45;;
33738;SDS011;20063;51.730;11.110;2023-02-25T07:38:39;14.13;;;4.13;;
33738;SDS011;20063;51.730;11.110;2023-02-25T07:41:05;10.07;;;4.43;;
33738;SDS011;20063;51.730;11.110;2023-02-25T07:43:32;11.88;;;4.47;;
33738;SDS011;20063;51.730;11.110;2023-02-25T07:45:58;9.15;;;3.80;;
33738;SDS011;20063;51.730;11.110;2023-02-25T07:48:25;11.65;;;4.10;;
33738;SDS011;20063;51.730;11.110;2023-02-25T07:50:50;18.15;;;4.97;;
33738;SDS011;20063;51.730;11.110;2023-02-25T07:53:16;23.08;;;6.78;;
33738;SDS011;20063;51.730;11.110;2023-02-25T07:55:42;7.20;;;4.60;;
33738;SDS011;20063;51.730;11.110;2023-02-25T07:58:08;17.52;;;6.32;;
33738;SDS011;20063;51.730;11.110;2023-02-25T08:00:35;15.93;;;4.45;;
33738;SDS011;20063;51.730;11.110;2023-02-25T08:03:02;19.70;;;5.45;;
33738;SDS011;20063;51.730;11.110;2023-02-25T08:05:29;21.00;;;5.32;;
33738;SDS011;20063;51.730;11.110;2023-02-25T08:07:58;9.68;;;4.95;;
33738;SDS011;20063;51.730;11.110;2023-02-25T08:10:23;19.23;;;6.18;;
33738;SDS011;20063;51.730;11.110;2023-02-25T08:12:49;16.20;;;6.13;;
33738;SDS011;20063;51.730;11.110;2023-02-25T08:15:14;21.10;;;6.97;;
33738;SDS011;20063;51.730;11.110;2023-02-25T08:17:40;12.75;;;6.90;;
33738;SDS011;20063;51.730;11.110;2023-02-25T08:20:06;19.90;;;5.95;;
33738;SDS011;20063;51.730;11.110;2023-02-25T08:22:33;22.90;;;7.22;;
33738;SDS011;20063;51.730;11.110;2023-02-25T08:24:58;16.33;;;6.63;;
33738;SDS011;20063;51.730;11.110;2023-02-25T08:27:24;12.18;;;6.93;;
33738;SDS011;20063;51.730;11.110;2023-02-25T08:29:50;23.83;;;7.53;;
33738;SDS011;20063;51.730;11.110;2023-02-25T08:32:16;17.77;;;6.70;;
33738;SDS011;20063;51.730;11.110;2023-02-25T08:34:41;17.65;;;5.95;;
33738;SDS011;20063;51.730;11.110;2023-02-25T08:37:08;22.30;;;9.68;;
33738;SDS011;20063;51.730;11.110;2023-02-25T08:39:35;20.92;;;6.28;;
33738;SDS011;20063;51.730;11.110;2023-02-25T08:42:01;15.70;;;6.68;;
33738;SDS011;20063;51.730;11.110;2023-02-25T08:44:26;13.68;;;4.72;;
33738;SDS011;20063;51.730;11.110;2023-02-25T08:46:52;15.20;;;5.38;;
33738;SDS011;20063;51.730;11.110;2023-02-25T08:49:25;9.68;;;3.92;;
33738;SDS011;20063;51.730;11.110;2023-02-25T08:52:04;10.13;;;4.63;;
33738;SDS011;20063;51.730;11.110;2023-02-25T08:54:30;29.50;;;9.32;;
33738;SDS011;20063;51.730;11.110;2023-02-25T08:56:56;15.43;;;4.93;;
33738;SDS011;20063;51.730;11.110;2023-02-25T08:59:24;27.30;;;7.25;;
33738;SDS011;20063;51.730;11.110;2023-02-25T09:01:50;20.08;;;7.38;;
33738;SDS011;20063;51.730;11.110;2023-02-25T09:06:44;10.65;;;4.90;;
33738;SDS011;20063;51.730;11.110;2023-02-25T09:09:13;9.70;;;4.95;;
33738;SDS011;20063;51.730;11.110;2023-02-25T09:11:41;12.43;;;6.18;;
33738;SDS011;20063;51.730;11.110;2023-02-25T09:14:07;11.18;;;5.05;;
33738;SDS011;20063;51.730;11.110;2023-02-25T09:16:33;8.18;;;4.10;;
33738;SDS011;20063;51.730;11.110;2023-02-25T09:19:00;11.98;;;4.45;;
33738;SDS011;20063;51.730;11.110;2023-02-25T09:21:26;7.60;;;4.40;;
33738;SDS011;20063;51.730;11.110;2023-02-25T09:23:51;9.02;;;4.30;;
33738;SDS011;20063;51.730;11.110;2023-02-25T09:26:17;7.68;;;4.78;;
33738;SDS011;20063;51.730;11.110;2023-02-25T09:28:44;11.40;;;4.30;;
33738;SDS011;20063;51.730;11.110;2023-02-25T09:31:11;12.30;;;4.10;;
33738;SDS011;20063;51.730;11.110;2023-02-25T09:33:41;15.02;;;4.07;;
33738;SDS011;20063;51.730;11.110;2023-02-25T09:36:12;5.45;;;3.72;;
33738;SDS011;20063;51.730;11.110;2023-02-25T09:38:43;15.70;;;4.33;;
33738;SDS011;20063;51.730;11.110;2023-02-25T09:41:17;7.57;;;3.85;;
33738;SDS011;20063;51.730;11.110;2023-02-25T09:44:16;7.28;;;4.05;;
33738;SDS011;20063;51.730;11.110;2023-02-25T09:46:54;7.13;;;4.25;;
33738;SDS011;20063;51.730;11.110;2023-02-25T09:49:41;12.93;;;3.95;;
33738;SDS011;20063;51.730;11.110;2023-02-25T09:52:35;14.65;;;4.60;;
33738;SDS011;20063;51.730;11.110;2023-02-25T09:55:15;12.02;;;5.07;;
33738;SDS011;20063;51.730;11.110;2023-02-25T09:58:02;16.80;;;5.15;;
33738;SDS011;20063;51.730;11.110;2023-02-25T10:00:45;12.68;;;4.78;;
33738;SDS011;20063;51.730;11.110;2023-02-25T10:09:20;7.45;;;3.95;;
33738;SDS011;20063;51.730;11.110;2023-02-25T10:26:27;10.65;;;3.55;;
33738;SDS011;20063;51.730;11.110;2023-02-25T10:29:07;7.50;;;3.40;;
33738;SDS011;20063;51.730;11.110;2023-02-25T10:31:37;11.65;;;4.13;;
33738;SDS011;20063;51.730;11.110;2023-02-25T10:34:21;5.10;;;3.65;;
33738;SDS011;20063;51.730;11.110;2023-02-25T10:36:53;9.90;;;3.35;;
33738;SDS011;20063;51.730;11.110;2023-02-25T10:39:20;10.02;;;4.20;;
33738;SDS011;20063;51.730;11.110;2023-02-25T10:41:46;11.10;;;4.07;;
33738;SDS011;20063;51.730;11.110;2023-02-25T10:44:13;6.38;;;3.70;;
33738;SDS011;20063;51.730;11.110;2023-02-25T10:54:43;7.15;;;3.90;;
33738;SDS011;20063;51.730;11.110;2023-02-25T10:57:12;7.93;;;3.80;;
33738;SDS011;20063;51.730;11.110;2023-02-25T10:59:47;12.80;;;4.30;;
33738;SDS011;20063;51.730;11.110;2023-02-25T11:02:29;11.07;;;4.97;;
33738;SDS011;20063;51.730;11.110;2023-02-25T11:04:57;11.43;;;4.53;;
33738;SDS011;20063;51.730;11.110;2023-02-25T11:10:07;7.90;;;5.28;;
33738;SDS011;20063;51.730;11.110;2023-02-25T11:12:39;17.85;;;4.93;;
33738;SDS011;20063;51.730;11.110;2023-02-25T11:17:58;12.20;;;5.55;;
33738;SDS011;20063;51.730;11.110;2023-02-25T11:20:30;5.43;;;4.00;;
33738;SDS011;20063;51.730;11.110;2023-02-25T11:22:56;10.13;;;3.70;;
33738;SDS011;20063;51.730;11.110;2023-02-25T11:25:29;13.73;;;3.95;;
33738;SDS011;20063;51.730;11.110;2023-02-25T11:28:00;6.18;;;3.75;;
33738;SDS011;20063;51.730;11.110;2023-02-25T11:30:34;9.65;;;3.95;;
33738;SDS011;20063;51.730;11.110;2023-02-25T11:33:02;6.07;;;3.50;;
33738;SDS011;20063;51.730;11.110;2023-02-25T11:35:33;8.82;;;3.30;;
33738;SDS011;20063;51.730;11.110;2023-02-25T11:40:50;2.97;;;1.98;;
33738;SDS011;20063;51.730;11.110;2023-02-25T11:43:17;1.73;;;1.63;;
33738;SDS011;20063;51.730;11.110;2023-02-25T11:45:48;4.00;;;1.75;;
33738;SDS011;20063;51.730;11.110;2023-02-25T11:48:29;2.58;;;2.25;;
33738;SDS011;20063;51.730;11.110;2023-02-25T11:51:11;3.00;;;1.98;;
33738;SDS011;20063;51.730;11.110;2023-02-25T11:53:51;2.17;;;1.95;;
33738;SDS011;20063;51.730;11.110;2023-02-25T11:56:49;5.38;;;2.63;;
33738;SDS011;20063;51.730;11.110;2023-02-25T11:59:27;5.47;;;2.63;;
33738;SDS011;20063;51.730;11.110;2023-02-25T12:13:03;4.72;;;2.53;;
33738;SDS011;20063;51.730;11.110;2023-02-25T12:24:29;5.43;;;3.10;;
33738;SDS011;20063;51.730;11.110;2023-02-25T12:29:59;5.18;;;3.22;;
33738;SDS011;20063;51.730;11.110;2023-02-25T12:35:47;6.32;;;2.20;;
33738;SDS011;20063;51.730;11.110;2023-02-25T12:38:46;6.18;;;1.90;;
33738;SDS011;20063;51.730;11.110;2023-02-25T12:52:18;5.15;;;2.13;;
33738;SDS011;20063;51.730;11.110;2023-02-25T12:57:27;8.23;;;2.85;;
33738;SDS011;20063;51.730;11.110;2023-02-25T13:00:25;12.23;;;5.53;;
33738;SDS011;20063;51.730;11.110;2023-02-25T13:16:58;6.80;;;1.58;;
33738;SDS011;20063;51.730;11.110;2023-02-25T13:28:19;3.70;;;1.83;;
33738;SDS011;20063;51.730;11.110;2023-02-25T13:36:39;3.15;;;1.90;;
33738;SDS011;20063;51.730;11.110;2023-02-25T13:47:51;4.75;;;1.73;;
33738;SDS011;20063;51.730;11.110;2023-02-25T13:53:29;2.45;;;2.05;;
33738;SDS011;20063;51.730;11.110;2023-02-25T14:01:15;5.60;;;1.75;;
33738;SDS011;20063;51.730;11.110;2023-02-25T14:06:55;2.80;;;2.25;;
33738;SDS011;20063;51.730;11.110;2023-02-25T14:09:51;3.17;;;2.05;;
33738;SDS011;20063;51.730;11.110;2023-02-25T14:15:18;9.93;;;2.17;;
33738;SDS011;20063;51.730;11.110;2023-02-25T14:23:27;2.67;;;2.17;;
33738;SDS011;20063;51.730;11.110;2023-02-25T14:26:04;2.38;;;2.17;;
33738;SDS011;20063;51.730;11.110;2023-02-25T14:45:58;1.75;;;1.42;;
33738;SDS011;20063;51.730;11.110;2023-02-25T14:48:44;3.03;;;1.80;;
33738;SDS011;20063;51.730;11.110;2023-02-25T14:54:33;2.17;;;1.92;;
33738;SDS011;20063;51.730;11.110;2023-02-25T15:09:22;3.70;;;1.90;;
33738;SDS011;20063;51.730;11.110;2023-02-25T15:17:36;8.55;;;2.22;;
33738;SDS011;20063;51.730;11.110;2023-02-25T15:20:31;10.68;;;2.15;;
33738;SDS011;20063;51.730;11.110;2023-02-25T15:28:39;10.15;;;2.30;;
33738;SDS011;20063;51.730;11.110;2023-02-25T15:31:08;8.63;;;2.33;;
33738;SDS011;20063;51.730;11.110;2023-02-25T15:38:46;5.47;;;2.10;;
33738;SDS011;20063;51.730;11.110;2023-02-25T15:46:41;9.05;;;2.75;;
33738;SDS011;20063;51.730;11.110;2023-02-25T15:52:08;7.22;;;3.45;;
33738;SDS011;20063;51.730;11.110;2023-02-25T15:57:30;4.97;;;2.13;;
33738;SDS011;20063;51.730;11.110;2023-02-25T16:05:21;5.60;;;2.17;;
33738;SDS011;20063;51.730;11.110;2023-02-25T16:10:44;13.70;;;2.50;;
33738;SDS011;20063;51.730;11.110;2023-02-25T16:13:20;9.63;;;3.22;;
33738;SDS011;20063;51.730;11.110;2023-02-25T16:15:51;9.13;;;2.75;;
33738;SDS011;20063;51.730;11.110;2023-02-25T16:18:21;14.80;;;2.35;;
33738;SDS011;20063;51.730;11.110;2023-02-25T16:21:01;8.43;;;1.88;;
33738;SDS011;20063;51.730;11.110;2023-02-25T16:23:30;12.40;;;2.47;;
33738;SDS011;20063;51.730;11.110;2023-02-25T16:26:01;6.90;;;2.28;;
33738;SDS011;20063;51.730;11.110;2023-02-25T16:35:16;8.13;;;2.83;;
33738;SDS011;20063;51.730;11.110;2023-02-25T16:40:01;11.00;;;2.67;;
33738;SDS011;20063;51.730;11.110;2023-02-25T16:42:30;12.05;;;2.65;;
33738;SDS011;20063;51.730;11.110;2023-02-25T16:45:04;12.13;;;3.42;;
33738;SDS011;20063;51.730;11.110;2023-02-25T16:47:31;7.60;;;2.75;;
33738;SDS011;20063;51.730;11.110;2023-02-25T16:50:01;19.85;;;3.17;;
33738;SDS011;20063;51.730;11.110;2023-02-25T16:52:33;12.43;;;2.65;;
33738;SDS011;20063;51.730;11.110;2023-02-25T16:55:03;9.05;;;2.90;;
33738;SDS011;20063;51.730;11.110;2023-02-25T16:57:32;10.02;;;2.67;;
33738;SDS011;20063;51.730;11.110;2023-02-25T17:00:19;22.98;;;5.47;;
33738;SDS011;20063;51.730;11.110;2023-02-25T17:02:58;13.40;;;3.15;;
33738;SDS011;20063;51.730;11.110;2023-02-25T17:05:31;11.38;;;2.60;;
33738;SDS011;20063;51.730;11.110;2023-02-25T17:08:03;15.07;;;3.03;;
33738;SDS011;20063;51.730;11.110;2023-02-25T17:10:42;9.85;;;2.67;;
33738;SDS011;20063;51.730;11.110;2023-02-25T17:13:15;5.03;;;2.40;;
33738;SDS011;20063;51.730;11.110;2023-02-25T17:15:47;16.40;;;3.30;;
33738;SDS011;20063;51.730;11.110;2023-02-25T17:18:17;11.10;;;2.80;;
33738;SDS011;20063;51.730;11.110;2023-02-25T17:20:45;12.00;;;2.85;;
33738;SDS011;20063;51.730;11.110;2023-02-25T17:23:12;13.57;;;2.78;;
33738;SDS011;20063;51.730;11.110;2023-02-25T17:25:40;11.65;;;2.50;;
33738;SDS011;20063;51.730;11.110;2023-02-25T17:28:14;12.50;;;3.20;;
33738;SDS011;20063;51.730;11.110;2023-02-25T17:30:46;10.38;;;2.75;;
33738;SDS011;20063;51.730;11.110;2023-02-25T17:33:25;16.85;;;3.33;;
33738;SDS011;20063;51.730;11.110;2023-02-25T17:35:55;8.73;;;3.53;;
33738;SDS011;20063;51.730;11.110;2023-02-25T17:38:30;7.93;;;2.65;;
33738;SDS011;20063;51.730;11.110;2023-02-25T17:40:56;14.32;;;3.10;;
33738;SDS011;20063;51.730;11.110;2023-02-25T17:43:31;13.95;;;3.47;;
33738;SDS011;20063;51.730;11.110;2023-02-25T17:52:06;7.93;;;2.85;;
33738;SDS011;20063;51.730;11.110;2023-02-25T17:54:44;17.20;;;2.90;;
33738;SDS011;20063;51.730;11.110;2023-02-25T17:57:18;13.98;;;3.50;;
33738;SDS011;20063;51.730;11.110;2023-02-25T17:59:48;14.23;;;3.27;;
33738;SDS011;20063;51.730;11.110;2023-02-25T18:04:49;5.47;;;2.72;;
33738;SDS011;20063;51.730;11.110;2023-02-25T18:07:29;15.50;;;3.83;;
33738;SDS011;20063;51.730;11.110;2023-02-25T18:09:56;10.27;;;3.28;;
33738;SDS011;20063;51.730;11.110;2023-02-25T18:15:00;9.52;;;2.65;;
33738;SDS011;20063;51.730;11.110;2023-02-25T18:17:38;15.35;;;3.35;;
33738;SDS011;20063;51.730;11.110;2023-02-25T18:20:06;18.35;;;3.90;;
33738;SDS011;20063;51.730;11.110;2023-02-25T18:22:53;7.05;;;2.75;;
33738;SDS011;20063;51.730;11.110;2023-02-25T18:27:55;9.35;;;2.75;;
33738;SDS011;20063;51.730;11.110;2023-02-25T18:30:22;9.57;;;2.70;;
33738;SDS011;20063;51.730;11.110;2023-02-25T18:32:49;15.70;;;3.00;;
33738;SDS011;20063;51.730;11.110;2023-02-25T18:35:15;9.95;;;3.10;;
33738;SDS011;20063;51.730;11.110;2023-02-25T18:37:45;17.60;;;3.13;;
33738;SDS011;20063;51.730;11.110;2023-02-25T18:40:14;8.35;;;3.03;;
33738;SDS011;20063;51.730;11.110;2023-02-25T18:42:41;17.35;;;4.03;;
33738;SDS011;20063;51.730;11.110;2023-02-25T18:45:12;15.65;;;3.03;;
33738;SDS011;20063;51.730;11.110;2023-02-25T18:47:39;9.90;;;2.63;;
33738;SDS011;20063;51.730;11.110;2023-02-25T18:50:05;10.85;;;2.53;;
33738;SDS011;20063;51.730;11.110;2023-02-25T18:52:31;14.32;;;3.13;;
33738;SDS011;20063;51.730;11.110;2023-02-25T18:54:56;14.30;;;3.15;;
33738;SDS011;20063;51.730;11.110;2023-02-25T18:57:23;15.13;;;3.85;;